Time;durP1;ratioP1;P1;durP2;ratioP2;P2;SDS_P1;SDS_P2;PMS_P1;PMS_P2;Temp;Humidity;BMP_temperature;BMP_pressure;BME280_temperature;BME280_humidity;BME280_pressure;Samples;Min_cycle;Max_cycle;Signal;HPM_P1;HPM_P2
2022/09/30 00:02:23;;;;;;;18.00;15.30;;;;;;;;;;5088870;28;20515;-77
2022/09/30 00:04:49;;;;;;;16.73;15.07;;;;;;;;;;5090601;28;20417;-76
2022/09/30 00:07:15;;;;;;;21.87;15.50;;;;;;;;;;5092983;28;20420;-75
2022/09/30 00:09:41;;;;;;;20.33;16.57;;;;;;;;;;5092803;28;20405;-76
2022/09/30 00:12:07;;;;;;;16.00;14.30;;;;;;;;;;5091817;28;20502;-73
2022/09/30 00:14:33;;;;;;;15.83;14.33;;;;;;;;;;5094225;28;20867;-76
2022/09/30 00:16:59;;;;;;;22.87;15.23;;;;;;;;;;5091839;28;20417;-75
2022/09/30 00:19:25;;;;;;;16.40;14.80;;;;;;;;;;5093814;28;20405;-73
2022/09/30 00:21:51;;;;;;;16.70;14.93;;;;;;;;;;5093440;28;20464;-75
2022/09/30 00:24:17;;;;;;;21.70;15.37;;;;;;;;;;5096774;28;20500;-75
2022/09/30 00:26:43;;;;;;;18.03;15.73;;;;;;;;;;5096503;28;20405;-78
2022/09/30 00:29:10;;;;;;;17.73;15.93;;;;;;;;;;5096457;28;20402;-74
2022/09/30 00:31:36;;;;;;;17.00;15.30;;;;;;;;;;5096365;28;20424;-81
2022/09/30 00:34:05;;;;;;;16.40;14.80;;;;;;;;;;5095155;28;20445;-77
2022/09/30 00:36:48;;;;;;;18.50;15.03;;;;;;;;;;5095051;28;20900;-79
2022/09/30 00:39:14;;;;;;;18.93;14.73;;;;;;;;;;5096298;28;20784;-76
2022/09/30 00:41:41;;;;;;;20.37;15.80;;;;;;;;;;5096206;28;20464;-77
2022/09/30 00:44:26;;;;;;;16.10;14.53;;;;;;;;;;5094854;28;20923;-75
2022/09/30 00:46:54;;;;;;;18.67;14.17;;;;;;;;;;5096039;28;20492;-74
2022/09/30 00:49:23;;;;;;;16.00;14.20;;;;;;;;;;5094765;28;20438;-76
2022/09/30 00:51:51;;;;;;;17.20;14.50;;;;;;;;;;5096151;28;20409;-74
2022/09/30 00:54:19;;;;;;;19.40;14.80;;;;;;;;;;5094447;28;20798;-77
2022/09/30 00:56:48;;;;;;;15.17;13.70;;;;;;;;;;5094667;28;20498;-77
2022/09/30 00:59:16;;;;;;;14.87;12.03;;;;;;;;;;5095881;28;20912;-76
2022/09/30 01:01:42;;;;;;;14.87;13.57;;;;;;;;;;5094457;28;20483;-75
2022/09/30 01:04:13;;;;;;;15.53;13.07;;;;;;;;;;5095725;28;20406;-76
2022/09/30 01:06:40;;;;;;;20.43;14.00;;;;;;;;;;5094308;28;20425;-75
2022/09/30 01:09:06;;;;;;;15.50;14.17;;;;;;;;;;5095716;28;20410;-77
2022/09/30 01:11:32;;;;;;;16.03;13.90;;;;;;;;;;5095615;28;20432;-77
2022/09/30 01:14:05;;;;;;;15.00;13.40;;;;;;;;;;5095556;28;20896;-74
2022/09/30 01:16:46;;;;;;;15.27;13.73;;;;;;;;;;5095344;28;20525;-78
2022/09/30 01:19:31;;;;;;;15.30;13.90;;;;;;;;;;5095492;28;20976;-77
2022/09/30 01:22:09;;;;;;;21.63;14.33;;;;;;;;;;5095375;28;20464;-76
2022/09/30 01:24:40;;;;;;;15.20;13.57;;;;;;;;;;5095350;28;20748;-76
2022/09/30 01:27:18;;;;;;;15.30;13.87;;;;;;;;;;5094037;28;20416;-76
2022/09/30 01:29:53;;;;;;;17.73;15.67;;;;;;;;;;5095181;28;20833;-79
2022/09/30 01:32:34;;;;;;;18.90;15.60;;;;;;;;;;5095278;28;20404;-75
2022/09/30 01:35:03;;;;;;;21.83;16.10;;;;;;;;;;5095492;28;20448;-75
2022/09/30 01:37:40;;;;;;;20.63;17.10;;;;;;;;;;5095131;28;20902;-79
2022/09/30 01:40:29;;;;;;;23.67;16.83;;;;;;;;;;5095046;28;20861;-76
2022/09/30 01:43:03;;;;;;;28.87;17.07;;;;;;;;;;5093503;28;20572;-76
2022/09/30 01:45:29;;;;;;;21.40;17.33;;;;;;;;;;5093655;28;20417;-76
2022/09/30 01:47:55;;;;;;;22.47;17.80;;;;;;;;;;5094902;28;20408;-79
2022/09/30 01:50:24;;;;;;;24.27;17.97;;;;;;;;;;5094863;28;20416;-77
2022/09/30 01:53:08;;;;;;;27.50;20.47;;;;;;;;;;5094864;28;20469;-76
2022/09/30 01:55:42;;;;;;;27.93;18.83;;;;;;;;;;5093328;28;20517;-76
2022/09/30 01:58:08;;;;;;;21.70;17.77;;;;;;;;;;5093425;28;20423;-76
2022/09/30 02:00:36;;;;;;;23.63;17.50;;;;;;;;;;5094557;28;20417;-75
2022/09/30 02:03:08;;;;;;;20.50;17.13;;;;;;;;;;5094649;28;20421;-78
2022/09/30 02:05:34;;;;;;;22.53;17.67;;;;;;;;;;5094596;28;20389;-77
2022/09/30 02:08:03;;;;;;;22.20;18.33;;;;;;;;;;5094869;28;20410;-77
2022/09/30 02:10:43;;;;;;;29.20;22.00;;;;;;;;;;5094504;28;20394;-77
2022/09/30 02:13:13;;;;;;;25.93;19.70;;;;;;;;;;5094423;28;20397;-78
2022/09/30 02:15:40;;;;;;;24.90;19.60;;;;;;;;;;5093056;28;20413;-76
2022/09/30 02:18:25;;;;;;;24.23;18.87;;;;;;;;;;5094421;28;20398;-76
2022/09/30 02:20:56;;;;;;;26.60;20.80;;;;;;;;;;5094264;28;20411;-76
2022/09/30 02:23:26;;;;;;;23.33;18.73;;;;;;;;;;5094298;28;20466;-79
2022/09/30 02:25:58;;;;;;;31.23;20.90;;;;;;;;;;5094232;28;20390;-77
2022/09/30 02:28:27;;;;;;;28.30;20.27;;;;;;;;;;5093967;28;20439;-79
2022/09/30 02:30:56;;;;;;;27.03;19.40;;;;;;;;;;5092615;28;20470;-80
2022/09/30 02:33:30;;;;;;;33.93;20.23;;;;;;;;;;5094098;28;20965;-80
2022/09/30 02:35:58;;;;;;;32.53;21.43;;;;;;;;;;5092765;28;20504;-76
2022/09/30 02:38:29;;;;;;;27.30;20.43;;;;;;;;;;5093957;28;20401;-76
2022/09/30 02:41:01;;;;;;;35.00;21.07;;;;;;;;;;5093869;28;20537;-80
2022/09/30 02:43:28;;;;;;;33.03;21.27;;;;;;;;;;5093929;28;20405;-78
2022/09/30 02:46:03;;;;;;;28.57;21.20;;;;;;;;;;5093852;28;20450;-75
2022/09/30 02:48:44;;;;;;;31.60;22.70;;;;;;;;;;5093816;28;20416;-78
2022/09/30 02:51:14;;;;;;;25.70;19.73;;;;;;;;;;5093778;28;20416;-78
2022/09/30 02:53:47;;;;;;;25.90;20.30;;;;;;;;;;5092550;28;20417;-80
2022/09/30 02:56:13;;;;;;;26.67;19.70;;;;;;;;;;5093549;28;20555;-77
2022/09/30 02:58:41;;;;;;;25.00;20.53;;;;;;;;;;5093772;28;20447;-74
2022/09/30 03:01:08;;;;;;;22.97;18.30;;;;;;;;;;5093707;28;20506;-77
2022/09/30 03:03:34;;;;;;;30.80;20.03;;;;;;;;;;5092350;28;20448;-76
2022/09/30 03:06:00;;;;;;;25.10;20.70;;;;;;;;;;5092372;28;20947;-76
2022/09/30 03:08:26;;;;;;;26.80;21.03;;;;;;;;;;5093541;28;20437;-79
2022/09/30 03:10:52;;;;;;;29.47;20.77;;;;;;;;;;5093653;28;20397;-76
2022/09/30 03:13:37;;;;;;;33.67;23.03;;;;;;;;;;5093587;28;20405;-77
2022/09/30 03:16:15;;;;;;;31.00;20.87;;;;;;;;;;5093454;28;20409;-76
2022/09/30 03:18:53;;;;;;;29.23;20.97;;;;;;;;;;5092241;28;20432;-74
2022/09/30 03:21:22;;;;;;;28.27;22.13;;;;;;;;;;5093455;28;20793;-77
2022/09/30 03:23:57;;;;;;;28.43;20.50;;;;;;;;;;5092468;28;20417;-79
2022/09/30 03:26:37;;;;;;;30.03;22.03;;;;;;;;;;5093421;28;20408;-79
2022/09/30 03:29:16;;;;;;;28.47;21.00;;;;;;;;;;5093399;28;20546;-77
2022/09/30 03:32:09;;;;;;;30.90;21.90;;;;;;;;;;5093411;28;20892;-76
2022/09/30 03:34:56;;;;;;;30.37;22.33;;;;;;;;;;5093331;28;20892;-78
2022/09/30 03:37:37;;;;;;;36.23;23.63;;;;;;;;;;5093210;28;20458;-79
2022/09/30 03:40:10;;;;;;;29.87;22.50;;;;;;;;;;5093943;28;20980;-78
2022/09/30 03:42:36;;;;;;;29.80;21.97;;;;;;;;;;5097563;28;20982;-75
2022/09/30 03:45:02;;;;;;;70.00;52.23;;;;;;;;;;5097454;28;20511;-74
2022/09/30 03:47:30;;;;;;;25.70;21.67;;;;;;;;;;5097359;28;20436;-79
2022/09/30 03:49:59;;;;;;;48.17;35.23;;;;;;;;;;5097180;28;20980;-77
2022/09/30 03:52:25;;;;;;;38.53;31.10;;;;;;;;;;5097403;28;20405;-74
2022/09/30 03:54:52;;;;;;;25.60;20.47;;;;;;;;;;5097294;28;20529;-74
2022/09/30 03:57:18;;;;;;;29.13;19.70;;;;;;;;;;5097176;28;20839;-74
2022/09/30 03:59:44;;;;;;;26.80;19.63;;;;;;;;;;5097024;28;20444;-73
2022/09/30 04:02:12;;;;;;;22.17;18.90;;;;;;;;;;5095650;28;20971;-74
2022/09/30 04:04:43;;;;;;;22.83;19.97;;;;;;;;;;5097025;28;20940;-74
2022/09/30 04:07:09;;;;;;;24.77;19.03;;;;;;;;;;5095545;28;20417;-75
2022/09/30 04:09:36;;;;;;;30.97;19.27;;;;;;;;;;5096804;28;20462;-74
2022/09/30 04:12:02;;;;;;;21.10;18.53;;;;;;;;;;5096812;28;20412;-75
2022/09/30 04:14:28;;;;;;;117.10;104.20;;;;;;;;;;5096738;28;20436;-74
2022/09/30 04:16:54;;;;;;;21.60;19.03;;;;;;;;;;5096670;28;20416;-75
2022/09/30 04:19:20;;;;;;;21.70;16.60;;;;;;;;;;5096710;28;20397;-74
2022/09/30 04:21:46;;;;;;;23.67;15.80;;;;;;;;;;5096565;28;20472;-74
2022/09/30 04:24:12;;;;;;;19.00;12.67;;;;;;;;;;5096885;28;20401;-74
2022/09/30 04:26:38;;;;;;;15.47;13.00;;;;;;;;;;5096572;28;21014;-74
2022/09/30 04:29:04;;;;;;;13.33;11.63;;;;;;;;;;5095568;28;20893;-74
2022/09/30 04:31:30;;;;;;;10.93;10.03;;;;;;;;;;5096391;28;20793;-74
2022/09/30 04:33:56;;;;;;;11.90;10.40;;;;;;;;;;5096402;28;20417;-74
2022/09/30 04:36:23;;;;;;;14.33;11.80;;;;;;;;;;5095103;28;20782;-73
2022/09/30 04:38:49;;;;;;;9.53;8.73;;;;;;;;;;5095034;28;20416;-74
2022/09/30 04:41:16;;;;;;;9.10;8.50;;;;;;;;;;5094907;28;20473;-75
2022/09/30 04:43:46;;;;;;;7.97;7.30;;;;;;;;;;5096211;28;20747;-74
2022/09/30 04:46:16;;;;;;;8.07;7.37;;;;;;;;;;5094782;28;20409;-74
2022/09/30 04:48:44;;;;;;;8.03;7.33;;;;;;;;;;5096108;28;20412;-75
2022/09/30 04:51:21;;;;;;;8.03;7.23;;;;;;;;;;5095933;28;20405;-74
2022/09/30 04:53:47;;;;;;;7.60;7.10;;;;;;;;;;5095653;28;20432;-74
2022/09/30 04:56:15;;;;;;;6.53;6.13;;;;;;;;;;5095749;28;20468;-75
2022/09/30 04:58:41;;;;;;;6.50;6.00;;;;;;;;;;5094587;28;20755;-75
2022/09/30 05:01:09;;;;;;;7.57;6.10;;;;;;;;;;5095732;28;20479;-75
2022/09/30 05:03:36;;;;;;;5.97;5.43;;;;;;;;;;5095777;28;20413;-75
2022/09/30 05:06:02;;;;;;;5.77;5.47;;;;;;;;;;5094464;28;20422;-76
2022/09/30 05:08:28;;;;;;;6.43;5.93;;;;;;;;;;5095717;28;20416;-74
2022/09/30 05:10:56;;;;;;;6.70;6.07;;;;;;;;;;5095682;28;20869;-75
2022/09/30 05:13:22;;;;;;;4.97;4.57;;;;;;;;;;5095572;28;20417;-74
2022/09/30 05:15:49;;;;;;;5.00;4.80;;;;;;;;;;5095591;28;20900;-75
2022/09/30 05:18:15;;;;;;;5.73;5.33;;;;;;;;;;5094237;28;20769;-75
2022/09/30 05:20:41;;;;;;;6.10;5.80;;;;;;;;;;5095453;28;20409;-75
2022/09/30 05:23:07;;;;;;;8.73;6.70;;;;;;;;;;5094153;28;20425;-76
2022/09/30 05:25:34;;;;;;;8.10;7.40;;;;;;;;;;5093993;28;20421;-76
2022/09/30 05:28:00;;;;;;;8.27;7.67;;;;;;;;;;5095367;28;20880;-75
2022/09/30 05:30:27;;;;;;;8.63;7.83;;;;;;;;;;5095257;28;20425;-75
2022/09/30 05:32:53;;;;;;;7.50;7.00;;;;;;;;;;5095268;28;20397;-75
2022/09/30 05:35:19;;;;;;;7.27;6.47;;;;;;;;;;5095210;28;20425;-74
2022/09/30 05:37:44;;;;;;;7.23;6.63;;;;;;;;;;5095171;28;20401;-75
2022/09/30 05:40:10;;;;;;;7.33;6.77;;;;;;;;;;5095026;28;20903;-75
2022/09/30 05:42:36;;;;;;;8.03;7.30;;;;;;;;;;5094948;28;20833;-75
2022/09/30 05:45:04;;;;;;;7.83;7.30;;;;;;;;;;5094871;28;20420;-75
2022/09/30 05:47:30;;;;;;;9.70;8.97;;;;;;;;;;5095258;28;20420;-75
2022/09/30 05:49:56;;;;;;;10.33;9.47;;;;;;;;;;5094863;28;20409;-75
2022/09/30 05:52:22;;;;;;;9.47;8.80;;;;;;;;;;5093540;28;20420;-75
2022/09/30 05:54:49;;;;;;;9.27;8.43;;;;;;;;;;5094517;28;21029;-74
2022/09/30 05:57:15;;;;;;;11.30;7.07;;;;;;;;;;5093457;28;20912;-78
2022/09/30 05:59:41;;;;;;;7.20;6.80;;;;;;;;;;5094761;28;20502;-79
2022/09/30 06:02:08;;;;;;;9.27;8.60;;;;;;;;;;5094737;28;20468;-79
2022/09/30 06:04:34;;;;;;;9.60;8.90;;;;;;;;;;5094721;28;20450;-80
2022/09/30 06:07:00;;;;;;;9.97;7.70;;;;;;;;;;5093511;28;20413;-80
2022/09/30 06:09:26;;;;;;;13.50;7.77;;;;;;;;;;5094728;28;20808;-83
2022/09/30 06:11:56;;;;;;;9.53;6.50;;;;;;;;;;5093651;28;20906;-83
2022/09/30 06:14:23;;;;;;;6.50;5.87;;;;;;;;;;5094594;28;20398;-80
2022/09/30 06:16:48;;;;;;;8.50;5.23;;;;;;;;;;5094477;28;20526;-82
2022/09/30 06:19:14;;;;;;;6.20;5.80;;;;;;;;;;5094404;28;20926;-77
2022/09/30 06:21:40;;;;;;;3.93;3.63;;;;;;;;;;5094384;28;20467;-77
2022/09/30 06:24:12;;;;;;;5.50;4.00;;;;;;;;;;5094353;28;20872;-80
2022/09/30 06:26:38;;;;;;;9.97;4.07;;;;;;;;;;5094234;28;20534;-73
2022/09/30 06:29:04;;;;;;;4.22;3.80;;;;;;;;;;5093641;28;20752;-77
2022/09/30 06:31:30;;;;;;;3.77;3.60;;;;;;;;;;5094130;28;20265;-75
2022/09/30 06:33:56;;;;;;;3.40;3.40;;;;;;;;;;5094128;28;20466;-75
2022/09/30 06:36:22;;;;;;;3.97;3.77;;;;;;;;;;5094119;28;20756;-75
2022/09/30 06:38:53;;;;;;;3.97;3.87;;;;;;;;;;5094098;28;20752;-81
2022/09/30 06:41:19;;;;;;;3.90;3.80;;;;;;;;;;5093869;28;20457;-80
2022/09/30 06:43:45;;;;;;;3.80;3.50;;;;;;;;;;5092674;28;20425;-82
2022/09/30 06:46:11;;;;;;;5.07;4.40;;;;;;;;;;5093849;28;20420;-82
2022/09/30 06:48:37;;;;;;;6.10;4.20;;;;;;;;;;5093938;28;20416;-82
2022/09/30 06:51:03;;;;;;;3.93;3.73;;;;;;;;;;5093818;28;20773;-79
2022/09/30 06:53:29;;;;;;;4.53;4.23;;;;;;;;;;5093731;28;20417;-79
2022/09/30 06:55:56;;;;;;;4.60;4.50;;;;;;;;;;5092327;28;20828;-83
2022/09/30 06:58:23;;;;;;;8.23;4.60;;;;;;;;;;5094050;28;20799;-86
2022/09/30 07:01:00;;;;;;;4.70;4.30;;;;;;;;;;5093905;28;20911;-81
2022/09/30 07:03:28;;;;;;;4.90;4.70;;;;;;;;;;5094201;28;20766;-81
2022/09/30 07:05:58;;;;;;;5.70;5.50;;;;;;;;;;5093175;28;20936;-78
2022/09/30 07:08:30;;;;;;;6.30;6.00;;;;;;;;;;5093646;28;20480;-84
2022/09/30 07:11:04;;;;;;;7.17;6.67;;;;;;;;;;5093561;28;20401;-83
2022/09/30 07:13:30;;;;;;;8.17;7.67;;;;;;;;;;5093526;28;20400;-83
2022/09/30 07:15:56;;;;;;;7.20;6.60;;;;;;;;;;5093051;28;20409;-82
2022/09/30 07:18:27;;;;;;;8.37;7.47;;;;;;;;;;5093598;28;20756;-84
2022/09/30 07:20:54;;;;;;;7.30;6.80;;;;;;;;;;5093495;28;20462;-78
2022/09/30 07:23:20;;;;;;;7.13;6.73;;;;;;;;;;5092265;28;20433;-79
2022/09/30 07:25:51;;;;;;;8.13;7.53;;;;;;;;;;5093400;28;20913;-78
2022/09/30 07:28:17;;;;;;;7.80;7.00;;;;;;;;;;5093398;28;20413;-75
2022/09/30 07:30:43;;;;;;;8.03;7.23;;;;;;;;;;5091928;28;20457;-76
2022/09/30 07:33:15;;;;;;;7.70;7.30;;;;;;;;;;5093431;28;20808;-77
2022/09/30 07:35:42;;;;;;;7.17;6.57;;;;;;;;;;5093316;28;20477;-76
2022/09/30 07:38:09;;;;;;;8.00;6.87;;;;;;;;;;5092080;28;20412;-76
2022/09/30 07:40:35;;;;;;;7.60;7.00;;;;;;;;;;5092061;28;20541;-76
2022/09/30 07:43:02;;;;;;;8.50;7.40;;;;;;;;;;5091892;28;20617;-76
2022/09/30 07:45:28;;;;;;;7.87;7.37;;;;;;;;;;5093191;28;20404;-77
2022/09/30 07:47:54;;;;;;;7.80;7.30;;;;;;;;;;5093291;28;20785;-77
2022/09/30 07:50:20;;;;;;;7.63;6.77;;;;;;;;;;5091956;28;20629;-76
2022/09/30 07:52:45;;;;;;;6.63;6.23;;;;;;;;;;5093277;28;20401;-77
2022/09/30 07:55:11;;;;;;;7.20;6.67;;;;;;;;;;5093031;28;20484;-76
2022/09/30 07:57:37;;;;;;;5.97;5.77;;;;;;;;;;5091871;28;20417;-76
2022/09/30 08:00:03;;;;;;;7.20;6.57;;;;;;;;;;5093043;28;20496;-77
2022/09/30 08:02:29;;;;;;;6.80;6.40;;;;;;;;;;5093068;28;20460;-76
2022/09/30 08:04:55;;;;;;;7.07;6.67;;;;;;;;;;5093095;28;20404;-76
2022/09/30 08:07:21;;;;;;;7.50;7.00;;;;;;;;;;5091692;28;20485;-77
2022/09/30 08:09:47;;;;;;;7.50;7.00;;;;;;;;;;5093038;28;20493;-76
2022/09/30 08:12:13;;;;;;;7.27;6.80;;;;;;;;;;5092779;28;20409;-76
2022/09/30 08:14:39;;;;;;;7.30;6.70;;;;;;;;;;5093078;28;20408;-76
2022/09/30 08:17:05;;;;;;;7.43;6.70;;;;;;;;;;5091649;28;20512;-76
2022/09/30 08:19:32;;;;;;;7.70;7.20;;;;;;;;;;5092942;28;20837;-77
2022/09/30 08:21:58;;;;;;;7.87;7.20;;;;;;;;;;5092943;28;20461;-77
2022/09/30 08:24:25;;;;;;;6.83;6.40;;;;;;;;;;5091603;28;20821;-77
2022/09/30 08:26:51;;;;;;;6.17;5.73;;;;;;;;;;5093166;28;20502;-76
2022/09/30 08:29:17;;;;;;;5.63;5.33;;;;;;;;;;5095234;28;20416;-77
2022/09/30 08:31:43;;;;;;;6.80;6.30;;;;;;;;;;5095170;28;20421;-77
2022/09/30 08:34:09;;;;;;;7.23;6.53;;;;;;;;;;5096411;28;20424;-76
2022/09/30 08:36:35;;;;;;;7.57;7.07;;;;;;;;;;5096357;28;20892;-77
2022/09/30 08:39:01;;;;;;;8.30;7.60;;;;;;;;;;5096200;28;20448;-77
2022/09/30 08:41:57;;;;;;;7.00;6.70;;;;;;;;;;5096016;28;20453;-77
2022/09/30 08:44:23;;;;;;;8.63;7.83;;;;;;;;;;5083262;28;20520;-77
2022/09/30 08:47:07;;;;;;;7.00;6.60;;;;;;;;;;5095174;28;20454;-77
2022/09/30 08:49:43;;;;;;;6.70;6.30;;;;;;;;;;5094851;28;20413;-77
2022/09/30 08:52:16;;;;;;;7.47;6.83;;;;;;;;;;5095983;28;20405;-76
2022/09/30 08:54:45;;;;;;;8.83;8.10;;;;;;;;;;5095836;28;20456;-77
2022/09/30 08:57:12;;;;;;;10.40;9.30;;;;;;;;;;5094988;28;20972;-76
2022/09/30 08:59:42;;;;;;;10.00;9.30;;;;;;;;;;5096249;28;20911;-76
2022/09/30 09:02:11;;;;;;;9.60;9.00;;;;;;;;;;5095677;28;20465;-76
2022/09/30 09:04:37;;;;;;;9.27;8.50;;;;;;;;;;5094466;28;20421;-76
2022/09/30 09:07:09;;;;;;;8.70;8.10;;;;;;;;;;5095832;28;20409;-77
2022/09/30 09:09:41;;;;;;;8.40;7.60;;;;;;;;;;5095783;28;20413;-76
2022/09/30 09:12:15;;;;;;;8.63;7.83;;;;;;;;;;5095908;28;20397;-76
2022/09/30 09:14:59;;;;;;;7.43;7.03;;;;;;;;;;5094699;28;20426;-76
2022/09/30 09:17:36;;;;;;;8.00;7.50;;;;;;;;;;5095569;28;20423;-77
2022/09/30 09:20:07;;;;;;;8.60;7.90;;;;;;;;;;5095500;28;20417;-76
2022/09/30 09:22:34;;;;;;;7.70;7.10;;;;;;;;;;5095358;28;20461;-76
2022/09/30 09:25:01;;;;;;;7.73;7.03;;;;;;;;;;5095522;28;20432;-77
2022/09/30 09:27:35;;;;;;;11.53;7.80;;;;;;;;;;5095330;28;20429;-79
2022/09/30 09:30:07;;;;;;;8.30;7.70;;;;;;;;;;5094603;28;20900;-78
2022/09/30 09:32:34;;;;;;;7.50;7.10;;;;;;;;;;5095165;28;20496;-80
2022/09/30 09:35:06;;;;;;;7.23;6.93;;;;;;;;;;5095252;28;20393;-78
2022/09/30 09:40:25;;;;;;;8.30;7.80;;;;;;;;;;5095089;28;20838;-77
2022/09/30 09:43:04;;;;;;;10.20;8.60;;;;;;;;;;5094981;28;20469;-78
2022/09/30 09:45:40;;;;;;;9.37;8.70;;;;;;;;;;5094988;28;20405;-78
2022/09/30 09:48:11;;;;;;;10.23;9.20;;;;;;;;;;5093613;28;20413;-78
2022/09/30 09:50:58;;;;;;;9.80;9.10;;;;;;;;;;5094936;28;20480;-78
2022/09/30 09:53:33;;;;;;;12.40;11.10;;;;;;;;;;5094947;28;20844;-77
2022/09/30 09:55:59;;;;;;;13.60;12.30;;;;;;;;;;5094566;28;20481;-76
2022/09/30 09:58:25;;;;;;;14.87;12.70;;;;;;;;;;5094897;28;20820;-76
2022/09/30 10:03:20;;;;;;;13.87;12.77;;;;;;;;;;5095042;28;20428;-77
2022/09/30 10:06:00;;;;;;;14.17;12.87;;;;;;;;;;5094579;28;20405;-78
2022/09/30 10:08:27;;;;;;;14.50;13.20;;;;;;;;;;5093240;28;20424;-76
2022/09/30 10:10:56;;;;;;;13.00;12.00;;;;;;;;;;5094359;28;20393;-78
2022/09/30 10:13:26;;;;;;;13.77;12.47;;;;;;;;;;5093037;28;20447;-78
2022/09/30 10:15:53;;;;;;;14.80;13.47;;;;;;;;;;5094532;28;20425;-78
2022/09/30 10:18:23;;;;;;;13.50;12.10;;;;;;;;;;5093131;28;20907;-78
2022/09/30 10:20:50;;;;;;;13.03;11.77;;;;;;;;;;5094378;28;21034;-77
2022/09/30 10:23:21;;;;;;;12.60;11.50;;;;;;;;;;5094198;28;20471;-77
2022/09/30 10:25:59;;;;;;;11.40;10.50;;;;;;;;;;5094179;28;20405;-77
2022/09/30 10:28:27;;;;;;;12.10;11.20;;;;;;;;;;5094230;28;20393;-78
2022/09/30 10:31:01;;;;;;;13.80;12.50;;;;;;;;;;5094144;28;20416;-77
2022/09/30 10:33:27;;;;;;;15.90;14.27;;;;;;;;;;5092943;28;20429;-77
2022/09/30 10:35:53;;;;;;;14.93;13.53;;;;;;;;;;5094378;28;20424;-76
2022/09/30 10:38:18;;;;;;;15.37;13.77;;;;;;;;;;5094078;28;20417;-78
2022/09/30 10:40:49;;;;;;;16.43;14.93;;;;;;;;;;5094037;28;20405;-78
2022/09/30 10:43:23;;;;;;;14.83;13.40;;;;;;;;;;5093761;28;20469;-77
2022/09/30 10:45:50;;;;;;;14.40;13.10;;;;;;;;;;5093975;28;20413;-77
2022/09/30 10:48:18;;;;;;;14.43;13.03;;;;;;;;;;5093955;28;20500;-78
2022/09/30 10:50:55;;;;;;;15.30;13.90;;;;;;;;;;5092033;28;20468;-78
2022/09/30 10:53:23;;;;;;;15.47;13.90;;;;;;;;;;5092466;28;20423;-77
2022/09/30 10:55:49;;;;;;;17.53;13.27;;;;;;;;;;5093696;28;20555;-77
2022/09/30 10:58:24;;;;;;;20.83;12.97;;;;;;;;;;5093719;28;20857;-77
2022/09/30 11:00:51;;;;;;;14.80;13.47;;;;;;;;;;5093616;28;20418;-79
2022/09/30 11:03:20;;;;;;;14.80;13.30;;;;;;;;;;5093575;28;20540;-78
2022/09/30 11:05:48;;;;;;;13.27;12.20;;;;;;;;;;5094309;28;20855;-74
2022/09/30 11:08:18;;;;;;;12.27;11.10;;;;;;;;;;5093558;28;20554;-74
2022/09/30 11:11:00;;;;;;;12.80;11.70;;;;;;;;;;5092577;28;20444;-74
2022/09/30 11:13:48;;;;;;;10.73;9.90;;;;;;;;;;5093616;28;20412;-74
2022/09/30 11:16:18;;;;;;;13.50;12.00;;;;;;;;;;5093540;28;20413;-74
2022/09/30 11:18:49;;;;;;;12.17;10.97;;;;;;;;;;5093541;28;20444;-73
2022/09/30 11:21:16;;;;;;;12.10;11.03;;;;;;;;;;5093359;28;20456;-74
2022/09/30 11:23:58;;;;;;;11.20;10.40;;;;;;;;;;5093432;28;20491;-73
2022/09/30 11:26:24;;;;;;;11.40;10.50;;;;;;;;;;5093527;28;20405;-74
2022/09/30 11:29:01;;;;;;;13.87;10.43;;;;;;;;;;5092246;28;20516;-73
2022/09/30 11:31:37;;;;;;;10.90;10.20;;;;;;;;;;5093346;28;20803;-73
2022/09/30 11:34:05;;;;;;;8.83;8.23;;;;;;;;;;5093428;28;20407;-73
2022/09/30 11:36:31;;;;;;;8.80;8.10;;;;;;;;;;5093426;28;20415;-73
2022/09/30 11:38:57;;;;;;;8.33;7.70;;;;;;;;;;5093270;28;20411;-73
2022/09/30 11:41:31;;;;;;;8.30;7.80;;;;;;;;;;5092008;28;20478;-73
2022/09/30 11:44:06;;;;;;;7.10;6.70;;;;;;;;;;5092000;28;20433;-73
2022/09/30 11:46:41;;;;;;;7.33;6.93;;;;;;;;;;5093301;28;20418;-73
2022/09/30 11:49:19;;;;;;;9.80;8.93;;;;;;;;;;5093220;28;20412;-73
2022/09/30 11:52:04;;;;;;;6.93;6.53;;;;;;;;;;5093136;28;20443;-73
2022/09/30 11:54:33;;;;;;;7.03;6.53;;;;;;;;;;5093080;28;20473;-73
2022/09/30 11:57:13;;;;;;;6.93;6.63;;;;;;;;;;5093250;28;20423;-73
2022/09/30 11:59:39;;;;;;;7.80;7.17;;;;;;;;;;5093452;28;20444;-73
2022/09/30 12:02:13;;;;;;;6.23;5.83;;;;;;;;;;5094008;28;20470;-73
2022/09/30 12:04:42;;;;;;;7.57;7.10;;;;;;;;;;5097019;28;20419;-72
2022/09/30 12:07:15;;;;;;;7.50;7.00;;;;;;;;;;5096896;28;20952;-73
2022/09/30 12:09:43;;;;;;;8.77;7.63;;;;;;;;;;5095679;28;20840;-73
2022/09/30 12:12:13;;;;;;;7.17;6.73;;;;;;;;;;5096854;28;20798;-74
2022/09/30 12:14:44;;;;;;;7.33;6.93;;;;;;;;;;5096830;28;20438;-74
2022/09/30 12:17:20;;;;;;;6.60;6.20;;;;;;;;;;5096866;28;20540;-74
2022/09/30 12:19:47;;;;;;;5.27;5.17;;;;;;;;;;5095505;28;20417;-74
2022/09/30 12:22:32;;;;;;;6.33;5.70;;;;;;;;;;5096720;28;20480;-74
2022/09/30 12:24:59;;;;;;;5.80;5.30;;;;;;;;;;5096592;28;20468;-74
2022/09/30 12:27:38;;;;;;;5.50;5.30;;;;;;;;;;5095371;28;20427;-74
2022/09/30 12:30:16;;;;;;;6.67;6.17;;;;;;;;;;5096608;28;20741;-74
2022/09/30 12:33:01;;;;;;;6.00;5.80;;;;;;;;;;5096553;28;20395;-75
2022/09/30 12:35:27;;;;;;;5.70;5.40;;;;;;;;;;5096641;28;20779;-75
2022/09/30 12:38:03;;;;;;;6.20;5.90;;;;;;;;;;5095160;28;20413;-80
2022/09/30 12:40:49;;;;;;;5.50;5.00;;;;;;;;;;5097770;28;20420;-74
2022/09/30 12:43:24;;;;;;;6.60;5.30;;;;;;;;;;5095977;28;20464;-76
2022/09/30 12:45:53;;;;;;;11.70;6.17;;;;;;;;;;5096108;28;20496;-74
2022/09/30 12:48:20;;;;;;;6.17;5.50;;;;;;;;;;5094903;28;20458;-73
2022/09/30 12:50:48;;;;;;;4.77;4.67;;;;;;;;;;5096119;28;20407;-72
2022/09/30 12:53:25;;;;;;;5.17;4.67;;;;;;;;;;5096080;28;20416;-71
2022/09/30 12:55:51;;;;;;;5.50;5.30;;;;;;;;;;5095849;28;20497;-74
2022/09/30 12:58:23;;;;;;;4.23;4.13;;;;;;;;;;5095973;28;20522;-72
2022/09/30 13:01:06;;;;;;;4.87;4.63;;;;;;;;;;5095831;28;20791;-73
2022/09/30 13:03:55;;;;;;;4.67;4.43;;;;;;;;;;5094558;28;20891;-73
2022/09/30 13:06:21;;;;;;;4.60;4.50;;;;;;;;;;5087637;28;20459;-73
2022/09/30 13:09:04;;;;;;;4.63;4.43;;;;;;;;;;5094502;28;20484;-75
2022/09/30 13:11:36;;;;;;;6.63;6.13;;;;;;;;;;5095731;28;20455;-75
2022/09/30 13:14:03;;;;;;;3.67;3.40;;;;;;;;;;5095301;28;20876;-74
2022/09/30 13:16:53;;;;;;;3.43;3.23;;;;;;;;;;5095650;28;20413;-75
2022/09/30 13:19:20;;;;;;;3.60;3.50;;;;;;;;;;5095286;28;20443;-72
2022/09/30 13:21:46;;;;;;;3.20;3.00;;;;;;;;;;5095680;28;20489;-75
2022/09/30 13:24:15;;;;;;;2.97;2.87;;;;;;;;;;5094170;28;20452;-74
2022/09/30 13:26:47;;;;;;;2.87;2.77;;;;;;;;;;5095391;28;20410;-77
2022/09/30 13:29:16;;;;;;;2.53;2.53;;;;;;;;;;5094144;28;20437;-74
2022/09/30 13:31:45;;;;;;;3.43;3.13;;;;;;;;;;5095314;28;20517;-73
2022/09/30 13:34:12;;;;;;;2.40;2.40;;;;;;;;;;5095303;28;20551;-73
2022/09/30 13:36:40;;;;;;;2.70;2.60;;;;;;;;;;5095293;28;20449;-73
2022/09/30 13:39:21;;;;;;;2.63;2.63;;;;;;;;;;5095227;28;20418;-73
2022/09/30 13:42:07;;;;;;;5.47;2.00;;;;;;;;;;5094984;28;20575;-73
2022/09/30 13:44:38;;;;;;;1.57;1.57;;;;;;;;;;5080014;28;20425;-73
2022/09/30 13:47:17;;;;;;;1.30;1.30;;;;;;;;;;5094954;28;20799;-72
2022/09/30 13:49:45;;;;;;;2.10;2.00;;;;;;;;;;5094947;28;20392;-72
2022/09/30 13:52:19;;;;;;;3.40;1.80;;;;;;;;;;5094966;28;20410;-72
2022/09/30 13:54:46;;;;;;;1.70;1.57;;;;;;;;;;5094703;28;20513;-74
2022/09/30 13:57:22;;;;;;;8.70;7.90;;;;;;;;;;5094824;28;20454;-71
2022/09/30 14:00:03;;;;;;;1.87;1.73;;;;;;;;;;5094806;28;20518;-72
2022/09/30 14:02:40;;;;;;;1.80;1.80;;;;;;;;;;5094534;28;20469;-72
2022/09/30 14:05:17;;;;;;;1.70;1.60;;;;;;;;;;5094707;28;20429;-72
2022/09/30 14:07:55;;;;;;;1.60;1.60;;;;;;;;;;5093396;28;20432;-72
2022/09/30 14:10:27;;;;;;;5.00;1.53;;;;;;;;;;5094608;28;20404;-73
2022/09/30 14:13:12;;;;;;;1.63;1.63;;;;;;;;;;5094486;28;20887;-73
2022/09/30 14:15:45;;;;;;;1.90;1.80;;;;;;;;;;5094348;28;20779;-72
2022/09/30 14:18:17;;;;;;;1.50;1.50;;;;;;;;;;5093163;28;20428;-72
2022/09/30 14:21:08;;;;;;;1.50;1.50;;;;;;;;;;5094390;28;20412;-73
2022/09/30 14:23:35;;;;;;;1.80;1.80;;;;;;;;;;5086610;28;20500;-72
2022/09/30 14:26:07;;;;;;;1.80;1.70;;;;;;;;;;5093328;28;21100;-73
2022/09/30 14:28:37;;;;;;;1.57;1.57;;;;;;;;;;5092899;28;20435;-73
2022/09/30 14:31:11;;;;;;;4.13;3.97;;;;;;;;;;5092865;28;20429;-72
2022/09/30 14:33:38;;;;;;;1.50;1.50;;;;;;;;;;5092922;28;20431;-73
2022/09/30 14:36:07;;;;;;;1.80;1.70;;;;;;;;;;5092817;28;20429;-74
2022/09/30 14:38:34;;;;;;;1.97;1.87;;;;;;;;;;5094351;28;20437;-73
2022/09/30 14:41:07;;;;;;;2.33;2.33;;;;;;;;;;5094255;28;20401;-73
2022/09/30 14:43:34;;;;;;;1.17;1.17;;;;;;;;;;5094218;28;20421;-72
2022/09/30 14:46:11;;;;;;;1.90;1.87;;;;;;;;;;5093896;28;20416;-72
2022/09/30 14:48:38;;;;;;;1.50;1.40;;;;;;;;;;5092699;28;20800;-72
2022/09/30 14:51:12;;;;;;;2.40;2.30;;;;;;;;;;5093790;28;20443;-73
2022/09/30 14:53:51;;;;;;;1.50;1.50;;;;;;;;;;5092584;28;20432;-73
2022/09/30 14:56:22;;;;;;;1.80;1.80;;;;;;;;;;5093644;28;20460;-70